Главная страница
METAR-TAF:

METAR-TAF

Аэропорты :

Международный аэропорт имени Ислама Каримова

Ташкент, Узбекистан

широта: 41-16N, долгота: 069-16E, высота над уровнем моря: 489 м

Текущие метеонаблюдения

Эта сводка был подготовлена 35 минут назад, в 10:30 UTC
Ветер 4 Узел от северный
Температура 26°C
Влажность 23%
Давление 1018 hPa
Видимость 10 км и более
Нет облачности ниже 1500 м, и нет кучево-дождевой облачности

METAR: UTTT 241030Z 35004KT CAVOK 26/03 Q1018 R26R/CLRD70 NOSIG

Время: 16:05 (11:05 UTC)

Прогноз

Эта сводка был подготовлена 6 часа и 5 минут назад, в 05:00 UTC
Прогноз действительный с 24-го 06 UTC до 25-го 06 UTC
Ветер 10 Узел от северо-восточный
Видимость: 7000 м
временами
С 24-го 06 UTC до 24-го 14 UTC
Ветер 15 Узел от северо-западный

TAF: UTTT 240500Z 2406/2506 04010KT 7000 NSC TEMPO 2406/2414 31015KT

Метеонаблюдения и прогнозы для более 4000 аэропортов (сводки METAR и TAF).

Имеющиеся станции представлены на карте желтыми и красными точками.

Чтобы увидеть название станции, наведите на нее мышь.

Затем щелкните, чтобы увидеть метеонаблюдения и метеопрогнозы.

Управление картой: чтобы увеличить масштаб, щелкните зеленые кнопки с черным крестиком; чтобы уменьшить масштаб, щелкните зеленую кнопку с тире; для просмотра соседних карт щелкайте зеленые стрелки.


METAR-TAF: